Anchorage, AK (99503)

4:30 PM AKDT on August 04, 2015 (GMT -0800)
KTUU-TV | | Change Station
CLOSE
Current Station
Personal Weather Station
Location: Anchorage, AK
Elevation: 115 ft
Nearby Weather Stations

Elev 115 ft 61.18 °N, 149.87 °W | Updated 27 seconds ago

Clear
Clear
77.0 °F
Feels Like 78 °F
N
3.0
Wind Variable Wind from NW
Gusts 9.0 mph

Today
High -- | Low -- °F
--% Chance of Precip.
Yesterday
High -- | Low -- °F
Precip. -- in
5:39 AM 10:29 PM
Waning Gibbous, 73% visible
Pressure 29.89 in
Visibility 10.0 miles
Clouds Clear
Heat Index 78 °F
Dew Point 54 °F
Humidity 45%
Rainfall 0.00 in
Snow Depth Not available.
UV 5 out of 12
Pollen Not available.
Air Quality Not available.
Flu Activity Not available.
METAR PAMR 042353Z 30005KT 10SM CLR 24/11 A2989 RMK AO2 SLP120 T02390106 10244 20178 58018

More Conditions Fewer Conditions

Pressure 29.89 in
Visibility 10.0 miles
Clouds Clear
Heat Index 78 °F
Dew Point 54 °F
Humidity 45%
Rainfall 0.00 in
Snow Depth Not available.
UV 5 out of 12
Pollen Not available.
Air Quality Not available.
Flu Activity Not available.
METAR PAMR 042353Z 30005KT 10SM CLR 24/11 A2989 RMK AO2 SLP120 T02390106 10244 20178 58018

More Conditions Fewer Conditions

10-Day Weather Forecast

×

Almanac

Astronomy

Aug. 04, 2015 Rise Set
Actual Time
Civil Twilight
Nautical Twilight
Astronomical Twilight
Moon
Length of Visible Light
Length of Day
Tomorrow will be .
, % of the Moon is Illuminated

Today's Extremes

State Highs State Lows

Community

WunderPhotos

Upload Photos

1,844,033 photos uploaded!

WunderBlogs® & News

Nearby

Air Quality

  Air Quality AQ Index Pollutant
Not available.

Snow Depth

Station Depth Elevation

Earthquake Activity

City Distance Mag. Time & Date
Minimum magnitude displayed is 2.5.

Coastal Water Temperatures

Place Temperature

Stations

Nearby Weather Stations

Station Location Temp. Windchill Dew Point Humidity Wind Precip. Elev Updated Type